createdAt,value
2023-04-12T00:00:51.314Z,100644.75
2023-04-12T00:03:17.737Z,100636.91
2023-04-12T00:05:44.150Z,100632.56
2023-04-12T00:08:10.435Z,100629.19
2023-04-12T00:10:36.854Z,100636.78
2023-04-12T00:13:03.505Z,100629.19
2023-04-12T00:15:29.801Z,100629.66
2023-04-12T00:17:56.133Z,100627.13
2023-04-12T00:20:22.460Z,100626.09
2023-04-12T00:22:48.721Z,100616.84
2023-04-12T00:25:15.027Z,100623.34
2023-04-12T00:27:41.323Z,100617.31
2023-04-12T00:30:08.023Z,100628.94
2023-04-12T00:32:34.390Z,100624.72
2023-04-12T00:35:00.721Z,100621.19
2023-04-12T00:37:27.076Z,100628.75
2023-04-12T00:39:53.379Z,100626.31
2023-04-12T00:42:19.712Z,100624.34
2023-04-12T00:44:46.008Z,100625.03
2023-04-12T00:47:12.356Z,100628.13
2023-04-12T00:49:38.757Z,100631.56
2023-04-12T00:52:08.257Z,100635.72
2023-04-12T00:54:35.381Z,100635.63
2023-04-12T00:57:02.409Z,100643.97
2023-04-12T00:59:29.036Z,100639.56
2023-04-12T01:01:59.957Z,100630.81
2023-04-12T01:04:27.698Z,100628.94
2023-04-12T01:06:56.733Z,100628.94
2023-04-12T01:09:26.068Z,100626.41
2023-04-12T01:12:23.167Z,100625.31
2023-04-12T01:15:07.198Z,100623.59
2023-04-12T01:17:41.916Z,100616.75
2023-04-12T01:20:14.177Z,100614.06
2023-04-12T01:22:55.694Z,100614.78
2023-04-12T01:25:42.954Z,100605.38
2023-04-12T01:28:14.597Z,100605.22
2023-04-12T01:30:42.634Z,100596.72
2023-04-12T01:33:11.957Z,100597.53
2023-04-12T01:35:40.089Z,100591.50
2023-04-12T01:38:06.883Z,100598.97
2023-04-12T01:40:33.428Z,100598.97
2023-04-12T01:43:07.462Z,100601.28
2023-04-12T01:45:34.552Z,100599.38
2023-04-12T01:48:01.863Z,100585.03
2023-04-12T01:50:53.294Z,100577.50
2023-04-12T01:53:46.598Z,100584.22
2023-04-12T01:56:15.331Z,100569.88
2023-04-12T01:58:43.720Z,100575.78
2023-04-12T02:01:13.256Z,100574.00
2023-04-12T02:03:43.279Z,100570.50
2023-04-12T02:06:10.618Z,100572.03
2023-04-12T02:08:36.985Z,100568.56
2023-04-12T02:11:12.186Z,100572.66
2023-04-12T02:13:38.498Z,100566.59
2023-04-12T02:16:05.035Z,100569.13
2023-04-12T02:18:31.320Z,100570.03
2023-04-12T02:20:57.624Z,100569.84
2023-04-12T02:23:23.940Z,100567.28
2023-04-12T02:25:50.265Z,100554.59
2023-04-12T02:28:16.572Z,100555.47
2023-04-12T02:30:42.939Z,100544.44
2023-04-12T02:33:09.391Z,100545.31
2023-04-12T02:35:36.301Z,100535.06
2023-04-12T02:38:02.947Z,100540.84
2023-04-12T02:40:32.492Z,100537.41
2023-04-12T02:42:58.793Z,100536.53
2023-04-12T02:45:25.194Z,100539.88
2023-04-12T02:47:51.600Z,100535.75
2023-04-12T02:50:17.969Z,100539.13
2023-04-12T02:52:44.274Z,100532.38
2023-04-12T02:55:10.597Z,100523.03
2023-04-12T02:57:36.922Z,100519.66
2023-04-12T03:00:03.879Z,100528.09
2023-04-12T03:02:33.078Z,100521.41
2023-04-12T03:04:59.574Z,100523.03
2023-04-12T03:07:25.874Z,100510.47
2023-04-12T03:09:52.177Z,100507.84
2023-04-12T03:12:18.462Z,100507.84
2023-04-12T03:14:44.761Z,100511.22
2023-04-12T03:17:11.060Z,100501.75
2023-04-12T03:19:37.498Z,100499.09
2023-04-12T03:22:04.457Z,100487.97
2023-04-12T03:24:30.949Z,100486.97
2023-04-12T03:26:57.283Z,100493.69
2023-04-12T03:29:23.573Z,100479.94
2023-04-12T03:31:49.914Z,100476.63
2023-04-12T03:34:16.207Z,100477.38
2023-04-12T03:36:42.584Z,100477.38
2023-04-12T03:39:08.936Z,100475.66
2023-04-12T03:41:35.313Z,100478.03
2023-04-12T03:44:01.610Z,100474.59
2023-04-12T03:46:27.978Z,100470.34
2023-04-12T03:48:54.379Z,100471.13
2023-04-12T03:51:20.838Z,100464.50
2023-04-12T03:53:47.140Z,100461.97
2023-04-12T03:56:13.474Z,100460.25
2023-04-12T03:58:40.255Z,100451.63
2023-04-12T04:01:06.824Z,100453.97
2023-04-12T04:03:33.796Z,100453.09
2023-04-12T04:06:01.446Z,100453.00
2023-04-12T04:08:28.799Z,100452.03
2023-04-12T04:10:56.988Z,100440.03
2023-04-12T04:13:23.354Z,100436.56
2023-04-12T04:15:52.091Z,100439.16
2023-04-12T04:18:18.400Z,100434.06
2023-04-12T04:20:44.688Z,100436.44
2023-04-12T04:23:11.028Z,100432.16
2023-04-12T04:25:37.381Z,100426.25
2023-04-12T04:28:03.802Z,100428.69
2023-04-12T04:30:30.137Z,100428.63
2023-04-12T04:32:56.702Z,100438.63
2023-04-12T04:35:23.106Z,100439.44
2023-04-12T04:37:49.441Z,100436.13
2023-04-12T04:40:15.900Z,100438.69
2023-04-12T04:42:42.166Z,100435.31
2023-04-12T04:45:08.951Z,100424.38
2023-04-12T04:47:35.269Z,100429.63
2023-04-12T04:50:01.721Z,100426.25
2023-04-12T04:52:28.033Z,100423.84
2023-04-12T04:54:54.337Z,100423.72
2023-04-12T04:57:20.633Z,100429.69
2023-04-12T04:59:46.915Z,100427.16
2023-04-12T05:02:13.322Z,100428.94
2023-04-12T05:04:39.657Z,100428.31
2023-04-12T05:07:05.964Z,100425.09
2023-04-12T05:09:32.265Z,100420.25
2023-04-12T05:11:58.603Z,100420.41
2023-04-12T05:14:33.784Z,100423.94
2023-04-12T05:17:07.903Z,100430.13
2023-04-12T05:19:34.254Z,100431.19
2023-04-12T05:22:00.563Z,100434.00
2023-04-12T05:24:26.891Z,100431.69
2023-04-12T05:26:53.224Z,100430.19
2023-04-12T05:29:19.517Z,100423.63
2023-04-12T05:31:45.802Z,100429.03
2023-04-12T05:34:12.105Z,100424.22
2023-04-12T05:36:38.522Z,100411.28
2023-04-12T05:39:04.882Z,100414.84
2023-04-12T05:41:31.202Z,100407.50
2023-04-12T05:43:57.521Z,100401.94
2023-04-12T05:46:23.964Z,100407.16
2023-04-12T05:48:50.344Z,100398.25
2023-04-12T05:51:18.280Z,100395.88
2023-04-12T05:53:47.520Z,100400.19
2023-04-12T05:56:13.841Z,100391.22
2023-04-12T05:58:40.140Z,100392.25
2023-04-12T06:01:06.578Z,100390.09
2023-04-12T06:03:33.162Z,100381.22
2023-04-12T06:05:59.701Z,100372.25
2023-04-12T06:08:26.039Z,100369.22
2023-04-12T06:10:52.342Z,100366.19
2023-04-12T06:13:18.616Z,100361.47
2023-04-12T06:15:44.952Z,100359.97
2023-04-12T06:18:11.375Z,100352.72
2023-04-12T06:20:39.380Z,100344.53
2023-04-12T06:23:05.704Z,100334.69
2023-04-12T06:25:32.072Z,100326.66
2023-04-12T06:27:58.415Z,100323.56
2023-04-12T06:30:24.792Z,100326.41
2023-04-12T06:32:51.224Z,100322.50
2023-04-12T06:35:17.585Z,100316.19
2023-04-12T06:37:43.889Z,100319.72
2023-04-12T06:40:10.254Z,100319.19
2023-04-12T06:42:36.602Z,100315.84
2023-04-12T06:45:02.989Z,100316.03
2023-04-12T06:47:29.848Z,100306.97
2023-04-12T06:49:56.369Z,100311.69
2023-04-12T06:52:26.073Z,100304.25
2023-04-12T06:54:53.117Z,100304.50
2023-04-12T06:57:19.462Z,100303.81
2023-04-12T06:59:45.808Z,100302.22
2023-04-12T07:02:12.181Z,100298.97
2023-04-12T07:04:38.508Z,100297.63
2023-04-12T07:07:04.836Z,100293.59
2023-04-12T07:09:31.410Z,100289.50
2023-04-12T07:11:58.480Z,100291.44
2023-04-12T07:14:24.760Z,100286.50
2023-04-12T07:16:51.183Z,100289.25
2023-04-12T07:19:17.602Z,100279.22
2023-04-12T07:21:43.965Z,100278.63
2023-04-12T07:24:10.304Z,100272.88
2023-04-12T07:26:36.810Z,100275.53
2023-04-12T07:29:03.145Z,100267.97
2023-04-12T07:31:29.492Z,100257.91
2023-04-12T07:33:55.995Z,100257.22
2023-04-12T07:36:22.390Z,100261.56
2023-04-12T07:38:48.737Z,100257.47
2023-04-12T07:41:15.046Z,100255.75
2023-04-12T07:43:41.329Z,100256.66
2023-04-12T07:46:07.656Z,100243.28
2023-04-12T07:48:34.573Z,100239.97
2023-04-12T07:51:00.867Z,100225.56
2023-04-12T07:53:28.185Z,100225.59
2023-04-12T07:55:55.968Z,100229.03
2023-04-12T07:58:24.256Z,100224.81
2023-04-12T08:00:52.116Z,100224.03
2023-04-12T08:03:19.124Z,100219.75
2023-04-12T08:05:45.838Z,100213.81
2023-04-12T08:08:12.271Z,100214.66
2023-04-12T08:10:39.614Z,100207.84
2023-04-12T08:13:06.809Z,100206.13
2023-04-12T08:15:33.153Z,100206.13
2023-04-12T08:17:59.588Z,100195.03
2023-04-12T08:20:25.937Z,100196.72
2023-04-12T08:22:52.480Z,100200.13
2023-04-12T08:25:18.800Z,100184.72
2023-04-12T08:27:45.554Z,100189.72
2023-04-12T08:30:12.800Z,100177.72
2023-04-12T08:32:39.232Z,100175.97
2023-04-12T08:35:06.298Z,100171.66
2023-04-12T08:37:33.116Z,100166.41
2023-04-12T08:40:05.632Z,100162.91
2023-04-12T08:42:34.083Z,100161.03
2023-04-12T08:45:05.079Z,100154.06
2023-04-12T08:47:37.064Z,100153.19
2023-04-12T08:50:04.141Z,100144.44
2023-04-12T08:52:33.689Z,100146.09
2023-04-12T08:55:08.292Z,100146.03
2023-04-12T08:57:40.609Z,100139.91
2023-04-12T09:00:08.298Z,100136.28
2023-04-12T09:02:38.140Z,100128.50
2023-04-12T09:05:05.904Z,100121.56
2023-04-12T09:07:33.266Z,100117.03
2023-04-12T09:09:59.536Z,100111.84
2023-04-12T09:12:25.990Z,100116.00
2023-04-12T09:15:12.957Z,100108.81
2023-04-12T09:17:41.229Z,100113.66
2023-04-12T09:20:16.834Z,100097.38
2023-04-12T09:22:44.401Z,100096.19
2023-04-12T09:25:14.074Z,100096.06
2023-04-12T09:27:50.900Z,100096.50
2023-04-12T09:30:19.320Z,100087.03
2023-04-12T09:32:46.150Z,100072.41
2023-04-12T09:35:15.560Z,100068.34
2023-04-12T09:37:41.911Z,100063.72
2023-04-12T09:40:09.769Z,100061.22
2023-04-12T09:42:50.974Z,100055.72
2023-04-12T09:45:20.787Z,100060.63
2023-04-12T09:47:47.328Z,100050.00
2023-04-12T09:50:21.531Z,100059.00
2023-04-12T09:52:48.082Z,100051.91
2023-04-12T09:55:15.472Z,100052.41
2023-04-12T09:57:44.555Z,100045.63
2023-04-12T10:00:12.936Z,100040.00
2023-04-12T10:02:42.736Z,100030.50
2023-04-12T10:05:11.525Z,100026.03
2023-04-12T10:07:40.012Z,100018.03
2023-04-12T10:10:07.814Z,100020.22
2023-04-12T10:12:36.239Z,100009.03
2023-04-12T10:15:06.830Z,100006.31
2023-04-12T10:17:34.948Z,100004.44
2023-04-12T10:20:02.945Z,99992.22
2023-04-12T10:22:29.356Z,99987.81
2023-04-12T10:24:55.727Z,99969.81
2023-04-12T10:27:25.929Z,99973.34
2023-04-12T10:29:52.302Z,99965.06
2023-04-12T10:32:25.526Z,99954.88
2023-04-12T10:34:57.712Z,99951.91
2023-04-12T10:38:01.712Z,99943.03
2023-04-12T10:40:29.089Z,99937.69
2023-04-12T10:43:23.147Z,99933.59
2023-04-12T10:45:50.188Z,99930.28
2023-04-12T10:48:37.807Z,99924.19
2023-04-12T10:51:29.081Z,99918.00
2023-04-12T10:54:07.825Z,99917.03
2023-04-12T10:56:35.817Z,99913.72
2023-04-12T10:59:04.656Z,99906.22
2023-04-12T11:01:31.680Z,99910.00
2023-04-12T11:04:17.582Z,99905.47
2023-04-12T11:07:21.099Z,99904.25
2023-04-12T11:09:47.374Z,99889.47
2023-04-12T11:12:17.155Z,99894.16
2023-04-12T11:14:48.710Z,99891.19
2023-04-12T11:17:15.134Z,99887.13
2023-04-12T11:19:45.591Z,99873.63
2023-04-12T11:22:17.086Z,99872.41
2023-04-12T11:24:45.319Z,99875.03
2023-04-12T11:27:12.196Z,99868.97
2023-04-12T11:29:38.555Z,99859.72
2023-04-12T11:32:06.573Z,99855.81
2023-04-12T11:34:34.399Z,99850.31
2023-04-12T11:37:01.122Z,99857.44
2023-04-12T11:39:27.392Z,99847.44
2023-04-12T11:41:56.778Z,99853.41
2023-04-12T11:44:23.349Z,99846.66
2023-04-12T11:46:49.703Z,99838.09
2023-04-12T11:49:20.426Z,99839.13
2023-04-12T11:51:49.496Z,99845.84
2023-04-12T11:54:15.993Z,99833.72
2023-04-12T11:56:42.382Z,99821.56
2023-04-12T11:59:08.811Z,99820.97
2023-04-12T12:01:35.499Z,99811.94
2023-04-12T12:04:02.338Z,99822.44
2023-04-12T12:06:29.712Z,99814.41
2023-04-12T12:08:56.556Z,99799.19
2023-04-12T12:11:24.496Z,99795.47
2023-04-12T12:13:52.649Z,99794.09
2023-04-12T12:16:26.808Z,99792.16
2023-04-12T12:18:53.509Z,99783.53
2023-04-12T12:21:20.413Z,99781.22
2023-04-12T12:23:47.000Z,99775.00
2023-04-12T12:26:24.212Z,99767.81
2023-04-12T12:28:52.983Z,99755.91
2023-04-12T12:31:24.798Z,99751.13
2023-04-12T12:33:55.871Z,99741.91
2023-04-12T12:36:36.336Z,99741.91
2023-04-12T12:39:11.372Z,99733.69
2023-04-12T12:41:39.336Z,99727.06
2023-04-12T12:44:05.648Z,99717.97
2023-04-12T12:49:04.667Z,99711.44
2023-04-12T12:51:31.026Z,99710.97
2023-04-12T12:53:57.560Z,99699.66
2023-04-12T12:56:24.025Z,99701.63
2023-04-12T12:58:50.332Z,99700.97
2023-04-12T13:01:16.639Z,99696.69
2023-04-12T13:03:43.064Z,99709.41
2023-04-12T13:06:09.593Z,99697.78
2023-04-12T13:08:35.902Z,99702.91
2023-04-12T13:11:02.373Z,99703.50
2023-04-12T13:13:28.724Z,99700.75
2023-04-12T13:15:55.098Z,99689.88
2023-04-12T13:18:21.432Z,99686.25
2023-04-12T13:20:47.718Z,99684.16
2023-04-12T13:23:14.507Z,99680.50
2023-04-12T13:25:40.886Z,99675.56
2023-04-12T13:28:07.219Z,99667.28
2023-04-12T13:30:33.508Z,99662.22
2023-04-12T13:32:59.866Z,99650.19
2023-04-12T13:35:26.244Z,99646.38
2023-04-12T13:37:52.511Z,99649.50
2023-04-12T13:40:18.931Z,99640.03
2023-04-12T13:42:45.233Z,99644.13
2023-04-12T13:45:11.822Z,99639.63
2023-04-12T13:47:38.593Z,99632.50
2023-04-12T13:50:05.437Z,99625.16
2023-04-12T13:52:31.776Z,99640.31
2023-04-12T13:54:58.093Z,99623.97
2023-04-12T13:57:24.373Z,99621.41
2023-04-12T13:59:50.676Z,99609.81
2023-04-12T14:02:17.020Z,99609.94
2023-04-12T14:04:53.843Z,99604.13
2023-04-12T14:07:20.215Z,99595.75
2023-04-12T14:09:46.562Z,99593.94
2023-04-12T14:12:12.881Z,99598.91
2023-04-12T14:14:39.185Z,99590.34
2023-04-12T14:17:05.538Z,99592.50
2023-04-12T14:19:31.921Z,99591.25
2023-04-12T14:21:58.293Z,99584.91
2023-04-12T14:24:24.637Z,99582.81
2023-04-12T14:26:50.930Z,99586.19
2023-04-12T14:29:17.305Z,99577.06
2023-04-12T14:31:43.605Z,99576.78
2023-04-12T14:34:09.957Z,99582.97
2023-04-12T14:36:36.444Z,99573.72
2023-04-12T14:39:03.378Z,99583.81
2023-04-12T14:41:29.978Z,99586.72
2023-04-12T14:43:56.611Z,99584.34
2023-04-12T14:46:23.045Z,99587.72
2023-04-12T14:48:49.390Z,99580.97
2023-04-12T14:51:15.706Z,99578.69
2023-04-12T14:53:41.974Z,99585.63
2023-04-12T14:56:24.336Z,99589.06
2023-04-12T14:58:55.325Z,99572.72
2023-04-12T15:01:22.789Z,99571.03
2023-04-12T15:03:49.821Z,99569.66
2023-04-12T15:06:16.238Z,99574.03
2023-04-12T15:08:42.551Z,99570.06
2023-04-12T15:11:10.042Z,99582.78
2023-04-12T15:13:38.240Z,99579.53
2023-04-12T15:16:05.383Z,99576.94
2023-04-12T15:18:31.863Z,99576.09
2023-04-12T15:20:58.236Z,99582.00
2023-04-12T15:23:24.530Z,99595.84
2023-04-12T15:25:58.277Z,99581.81
2023-04-12T15:28:24.788Z,99586.66
2023-04-12T15:30:51.076Z,99580.94
2023-04-12T15:33:17.417Z,99587.16
2023-04-12T15:35:43.710Z,99590.94
2023-04-12T15:38:11.864Z,99586.66
2023-04-12T15:40:40.635Z,99589.78
2023-04-12T15:43:06.953Z,99597.88
2023-04-12T15:45:33.293Z,99594.75
2023-04-12T15:47:59.693Z,99591.63
2023-04-12T15:50:26.017Z,99593.63
2023-04-12T15:52:52.319Z,99592.94
2023-04-12T15:55:18.832Z,99593.84
2023-04-12T15:57:45.115Z,99600.59
2023-04-12T16:00:12.002Z,99604.31
2023-04-12T16:02:39.699Z,99603.66
2023-04-12T16:05:06.302Z,99597.72
2023-04-12T16:07:32.618Z,99603.09
2023-04-12T16:09:58.920Z,99593.09
2023-04-12T16:12:25.205Z,99589.72
2023-04-12T16:14:51.994Z,99594.78
2023-04-12T16:17:18.349Z,99591.34
2023-04-12T16:19:44.634Z,99592.28
2023-04-12T16:22:11.293Z,99589.03
2023-04-12T16:24:37.645Z,99579.78
2023-04-12T16:27:03.955Z,99583.22
2023-04-12T16:29:30.258Z,99580.53
2023-04-12T16:31:56.573Z,99578.09
2023-04-12T16:34:22.913Z,99567.84
2023-04-12T16:36:49.261Z,99573.13
2023-04-12T16:39:15.607Z,99563.91
2023-04-12T16:41:41.963Z,99569.03
2023-04-12T16:44:08.260Z,99567.47
2023-04-12T16:46:34.579Z,99570.19
2023-04-12T16:49:00.872Z,99570.19
2023-04-12T16:51:27.260Z,99560.13
2023-04-12T16:54:03.491Z,99563.69
2023-04-12T16:56:29.788Z,99562.09
2023-04-12T16:58:56.133Z,99555.22
2023-04-12T17:01:22.434Z,99546.88
2023-04-12T17:03:48.834Z,99545.22
2023-04-12T17:06:15.237Z,99545.31
2023-04-12T17:08:41.550Z,99543.69
2023-04-12T17:11:07.867Z,99542.72
2023-04-12T17:13:34.267Z,99542.84
2023-04-12T17:16:00.590Z,99553.22
2023-04-12T17:18:26.945Z,99543.03
2023-04-12T17:20:53.286Z,99539.66
2023-04-12T17:23:19.596Z,99542.28
2023-04-12T17:25:45.982Z,99539.03
2023-04-12T17:28:12.380Z,99538.19
2023-04-12T17:30:38.851Z,99544.09
2023-04-12T17:33:05.260Z,99540.72
2023-04-12T17:35:31.597Z,99547.56
2023-04-12T17:37:57.973Z,99542.47
2023-04-12T17:40:24.316Z,99547.72
2023-04-12T17:42:50.664Z,99549.47
2023-04-12T17:45:16.984Z,99536.72
2023-04-12T17:47:43.363Z,99535.03
2023-04-12T17:50:10.988Z,99529.13
2023-04-12T17:52:37.849Z,99527.44
2023-04-12T17:55:07.793Z,99524.03
2023-04-12T17:57:34.217Z,99519.75
2023-04-12T18:00:00.654Z,99505.16
2023-04-12T18:02:27.080Z,99508.72
2023-04-12T18:04:53.636Z,99511.31
2023-04-12T18:07:22.856Z,99504.50
2023-04-12T18:09:49.291Z,99499.44
2023-04-12T18:12:15.614Z,99501.94
2023-04-12T18:14:41.946Z,99501.97
2023-04-12T18:17:08.367Z,99512.16
2023-04-12T18:19:34.876Z,99522.47
2023-04-12T18:22:01.214Z,99528.50
2023-04-12T18:24:30.417Z,99525.09
2023-04-12T18:26:56.722Z,99523.38
2023-04-12T18:29:23.045Z,99522.59
2023-04-12T18:31:49.521Z,99524.28
2023-04-12T18:34:15.848Z,99523.50
2023-04-12T18:36:42.259Z,99526.97
2023-04-12T18:39:08.621Z,99523.53
2023-04-12T18:41:34.992Z,99516.75
2023-04-12T18:44:01.455Z,99521.94
2023-04-12T18:46:27.976Z,99519.41
2023-04-12T18:48:54.269Z,99517.69
2023-04-12T18:51:24.113Z,99519.41
2023-04-12T18:53:50.632Z,99515.97
2023-04-12T18:56:18.414Z,99520.25
2023-04-12T18:58:54.653Z,99516.78
2023-04-12T19:01:24.015Z,99519.44
2023-04-12T19:03:50.453Z,99513.44
2023-04-12T19:06:16.916Z,99512.56
2023-04-12T19:08:43.240Z,99513.44
2023-04-12T19:11:09.615Z,99514.38
2023-04-12T19:13:36.030Z,99525.47
2023-04-12T19:16:02.589Z,99512.81
2023-04-12T19:18:29.056Z,99525.63
2023-04-12T19:20:56.128Z,99527.34
2023-04-12T19:23:22.433Z,99522.31
2023-04-12T19:25:48.720Z,99517.22
2023-04-12T19:28:15.061Z,99516.38
2023-04-12T19:30:41.428Z,99516.41
2023-04-12T19:33:07.746Z,99504.50
2023-04-12T19:35:34.535Z,99498.69
2023-04-12T19:38:03.883Z,99491.03
2023-04-12T19:40:31.260Z,99486.72
2023-04-12T19:42:57.668Z,99481.75
2023-04-12T19:45:24.159Z,99483.47
2023-04-12T19:47:50.557Z,99481.75
2023-04-12T19:50:17.022Z,99479.22
2023-04-12T19:52:43.846Z,99483.50
2023-04-12T19:55:10.878Z,99474.97
2023-04-12T19:57:38.238Z,99463.06
2023-04-12T20:00:05.896Z,99473.34
2023-04-12T20:02:32.299Z,99474.16
2023-04-12T20:04:58.663Z,99477.56
2023-04-12T20:07:24.976Z,99475.00
2023-04-12T20:09:51.389Z,99476.72
2023-04-12T20:12:17.700Z,99468.97
2023-04-12T20:14:44.086Z,99458.78
2023-04-12T20:17:10.467Z,99465.69
2023-04-12T20:19:36.873Z,99471.69
2023-04-12T20:22:03.467Z,99464.03
2023-04-12T20:24:30.106Z,99469.03
2023-04-12T20:26:59.202Z,99462.34
2023-04-12T20:29:25.571Z,99457.31
2023-04-12T20:31:51.872Z,99456.53
2023-04-12T20:34:18.161Z,99448.94
2023-04-12T20:36:44.443Z,99444.66
2023-04-12T20:39:10.731Z,99439.69
2023-04-12T20:41:37.017Z,99424.44
2023-04-12T20:44:03.345Z,99415.78
2023-04-12T20:46:29.783Z,99407.41
2023-04-12T20:48:56.809Z,99396.31
2023-04-12T20:51:23.260Z,99401.47
2023-04-12T20:53:49.627Z,99410.88
2023-04-12T20:56:16.174Z,99412.63
2023-04-12T20:58:42.502Z,99422.03
2023-04-12T21:01:09.023Z,99420.31
2023-04-12T21:03:35.649Z,99417.81
2023-04-12T21:06:02.421Z,99408.47
2023-04-12T21:08:29.113Z,99403.34
2023-04-12T21:10:55.450Z,99400.75
2023-04-12T21:13:21.915Z,99403.41
2023-04-12T21:15:49.102Z,99401.66
2023-04-12T21:18:18.329Z,99400.13
2023-04-12T21:20:44.832Z,99402.66
2023-04-12T21:23:13.976Z,99398.47
2023-04-12T21:25:40.295Z,99407.84
2023-04-12T21:28:06.564Z,99401.09
2023-04-12T21:30:33.043Z,99401.09
2023-04-12T21:32:59.346Z,99402.84
2023-04-12T21:35:25.672Z,99403.75
2023-04-12T21:37:51.987Z,99393.53
2023-04-12T21:40:19.211Z,99396.94
2023-04-12T21:42:45.537Z,99402.06
2023-04-12T21:45:11.827Z,99400.44
2023-04-12T21:47:40.311Z,99406.38
2023-04-12T21:50:07.909Z,99399.47
2023-04-12T21:52:34.493Z,99397.00
2023-04-12T21:55:00.885Z,99398.72
2023-04-12T21:57:33.680Z,99397.09
2023-04-12T22:00:01.762Z,99392.84
2023-04-12T22:02:28.185Z,99392.84
2023-04-12T22:04:54.578Z,99389.50
2023-04-12T22:07:20.894Z,99389.47
2023-04-12T22:09:47.194Z,99385.22
2023-04-12T22:12:13.481Z,99381.03
2023-04-12T22:14:40.501Z,99385.31
2023-04-12T22:17:06.840Z,99388.59
2023-04-12T22:19:49.300Z,99392.91
2023-04-12T22:22:15.582Z,99392.97
2023-04-12T22:24:42.166Z,99398.94
2023-04-12T22:27:08.487Z,99396.41
2023-04-12T22:29:34.966Z,99395.56
2023-04-12T22:32:01.576Z,99399.84
2023-04-12T22:34:28.045Z,99405.81
2023-04-12T22:36:54.504Z,99399.03
2023-04-12T22:39:21.267Z,99398.13
2023-04-12T22:41:50.946Z,99411.75
2023-04-12T22:44:17.284Z,99422.75
2023-04-12T22:46:44.213Z,99421.97
2023-04-12T22:49:10.583Z,99421.13
2023-04-12T22:51:36.846Z,99416.88
2023-04-12T22:54:03.233Z,99406.66
2023-04-12T22:56:29.558Z,99402.38
2023-04-12T22:58:55.906Z,99397.25
2023-04-12T23:01:22.361Z,99392.16
2023-04-12T23:03:48.656Z,99381.94
2023-04-12T23:06:14.939Z,99381.88
2023-04-12T23:08:41.251Z,99387.00
2023-04-12T23:11:07.586Z,99387.84
2023-04-12T23:13:34.703Z,99388.75
2023-04-12T23:16:04.057Z,99389.63
2023-04-12T23:18:30.482Z,99398.13
2023-04-12T23:20:56.771Z,99398.16
2023-04-12T23:23:23.063Z,99399.84
2023-04-12T23:25:49.389Z,99392.25
2023-04-12T23:28:19.104Z,99378.66
2023-04-12T23:30:48.370Z,99376.91
2023-04-12T23:33:19.093Z,99389.69
2023-04-12T23:35:46.973Z,99394.81
2023-04-12T23:38:13.688Z,99393.09
2023-04-12T23:40:39.988Z,99384.59
2023-04-12T23:43:06.280Z,99384.59
2023-04-12T23:45:32.554Z,99382.94
2023-04-12T23:47:58.887Z,99388.06
2023-04-12T23:50:27.430Z,99393.25
2023-04-12T23:52:53.695Z,99394.97
2023-04-12T23:55:20.095Z,99405.22
2023-04-12T23:57:46.469Z,99394.13
